| Date | Time | Temp. (oF) | Dew Point (oF) | Rel. Hum. (%) | Press. (in.) | Wind Dir. | Wind Speed (mph) | Hourly Rainfall (in.) |
|
|---|---|---|---|---|---|---|---|---|---|
| 1 | 03/25 | 00:00 | 48 | 40 | 76 | 30.09 | S | 2 | 0.00 |
| 2 | 03/24 | 23:00 | 49 | 41 | 74 | 30.08 | S | 5 | 0.00 |
| 3 | 03/24 | 22:00 | 51 | 41 | 70 | 30.07 | SSE | 4 | 0.00 |
| 4 | 03/24 | 21:00 | 51 | 38 | 63 | 30.07 | SE | 4 | 0.00 |
| 5 | 03/24 | 20:00 | 54 | 39 | 59 | 30.06 | S | 1 | 0.00 |
| 6 | 03/24 | 19:00 | 57 | 40 | 55 | 30.03 | ESE | 3 | 0.00 |
| 7 | 03/24 | 18:00 | 60 | 40 | 49 | 30.01 | E | 3 | 0.00 |
| 8 | 03/24 | 17:00 | 62 | 40 | 46 | 30.00 | S | 3 | 0.00 |
| 9 | 03/24 | 16:00 | 62 | 41 | 48 | 30.00 | NW | 2 | 0.00 |
| 10 | 03/24 | 15:00 | 62 | 41 | 48 | 30.01 | NE | 1 | 0.00 |
| 11 | 03/24 | 14:00 | 61 | 40 | 47 | 30.04 | WSW | 6 | 0.00 |
| 12 | 03/24 | 13:00 | 59 | 41 | 52 | 30.06 | W | 1 | 0.00 |
| 13 | 03/24 | 12:00 | 57 | 39 | 53 | 30.08 | NE | 4 | 0.00 |
| 14 | 03/24 | 11:00 | 55 | 41 | 61 | 30.09 | WNW | 4 | 0.00 |
| 15 | 03/24 | 10:00 | 52 | 41 | 68 | 30.11 | NE | 4 | 0.00 |
| 16 | 03/24 | 09:00 | 48 | 40 | 74 | 30.10 | SE | 3 | 0.00 |
| 17 | 03/24 | 08:00 | 41 | 40 | 99 | 30.09 | NNW | 1 | 0.00 |
| 18 | 03/24 | 07:00 | 36 | 35 | 97 | 30.08 | W | 4 | 0.00 |
| 19 | 03/24 | 06:00 | 36 | 34 | 96 | 30.05 | WSW | 0 | 0.00 |
| 20 | 03/24 | 05:00 | 37 | 35 | 94 | 30.04 | NW | 0 | 0.00 |
| 21 | 03/24 | 04:00 | 39 | 36 | 92 | 30.03 | NW | 0 | 0.00 |
| 22 | 03/24 | 03:00 | 40 | 38 | 94 | 30.02 | WSW | 0 | 0.00 |
| 23 | 03/24 | 02:00 | 40 | 37 | 91 | 30.01 | WSW | 1 | 0.00 |
| 24 | 03/24 | 01:00 | 41 | 37 | 88 | 30.02 | WSW | 0 | 0.00 |